Terminal Aerodrome Forecast
Issued by NWS Central Illinois

Home | Current Version | Previous Version | Text Only | Print | Product List | Glossary On
Versions: 1 2 3 4 5 6 7 8 9 10 11 12 13 14 15 16 17 18 19 20 21 22 23 24 25
940
FTUS43 KILX 192128 AAA
TAFSPI
TAF AMD
KSPI 192128Z 1921/2018 09006KT 4SM BR VCSH OVC008
     FM200500 00000KT 1/2SM -DZ FG OVC003
     FM201700 18005KT 4SM BR BKN008=

USA.gov is the U.S. government's official web portal to all federal, state and local government web resources and services.